Latest Weather Observations for Cape Moreton

IDQ60901

Issued at 1:25 pm EST Thursday 31 July 2014 (issued every 10 minutes, with the page automatically refreshed every 10 minutes)

About weather observations | Map of Brisbane area stations | Latest observations for Brisbane area | Other Formats
Station Details ID: 040043 Name: CAPE MORETON LIGHTHOUSE Lat: -27.03 Lon: 153.47 Height: 99.9 m
Data from the previous 72 hours. | See also: Recent months at Cape Moreton
Date/Time
EST
Tmp

°C
App
Tmp
°C
Dew
Point
°C
Rel
Hum
%
Delta-T

°C
Wind Press
QNH
hPa
Press
MSL
hPa
Rain
since
9 am
mm
Dir
 
Spd
km/h
Gust
km/h
Spd
kts
Gust
kts
31/01:00pm 21.2 19.1 15.1 68 3.6 N 20 24 11 13 1018.5 1018.4 -
31/12:30pm 21.1 18.7 14.5 66 3.9 N 20 24 11 13 1019.2 - -
31/12:00pm 21.0 18.1 13.9 64 4.1 N 22 28 12 15 1019.7 1019.6 -
31/11:30am 20.8 19.0 14.5 67 3.7 NNW 17 22 9 12 1020.4 - -
31/11:00am 19.9 17.2 12.9 64 4.0 NNW 19 20 10 11 1021.0 1020.9 -
31/10:30am 20.1 17.4 12.8 63 4.1 NW 19 24 10 13 1021.7 - -
31/10:00am 19.5 16.4 12.3 63 4.0 NW 20 28 11 15 1021.9 1021.8 -
31/09:30am 19.2 16.1 12.2 64 3.9 NW 20 28 11 15 1022.0 - -
31/09:00am 18.9 15.6 11.5 62 4.1 NW 20 28 11 15 1022.0 1021.9 -
31/08:30am 18.6 15.4 11.2 62 4.0 NW 19 24 10 13 1021.7 - -
31/08:00am 18.0 14.4 10.6 62 4.0 WNW 20 28 11 15 1021.4 1021.3 -
31/07:30am 17.9 14.1 11.2 65 3.7 NW 22 32 12 17 1021.0 - -
31/07:00am 17.1 13.3 11.2 68 3.2 NW 22 28 12 15 1020.8 1020.7 -
31/06:30am 17.1 13.5 12.0 72 2.8 NW 22 30 12 16 1020.7 - -
31/06:00am 17.3 13.6 12.6 74 2.6 NW 24 33 13 18 1020.5 1020.4 -
31/05:30am 17.7 14.5 13.2 75 2.5 NW 22 32 12 17 1020.4 - -
31/05:00am 18.0 13.7 13.3 74 2.7 NW 28 35 15 19 1020.1 1020.0 -
31/04:30am 18.1 13.3 12.8 71 3.0 NNW 30 37 16 20 1020.0 - -
31/04:00am 18.3 14.0 13.2 72 2.9 NNW 28 37 15 20 1020.0 1019.9 -
31/03:30am 18.2 13.4 12.9 71 3.0 NNW 30 39 16 21 1019.9 - -
31/03:00am 18.3 13.0 12.5 69 3.2 NNW 32 43 17 23 1019.8 1019.7 -
31/02:30am 18.3 13.9 13.0 71 3.0 NNW 28 39 15 21 1019.9 - -
31/02:00am 18.4 14.3 12.6 69 3.2 NNW 26 35 14 19 1020.1 1020.0 -
31/01:30am 18.4 14.6 13.7 74 2.7 NNW 26 37 14 20 1020.4 - -
31/01:00am 18.6 14.8 13.5 72 2.9 NNW 26 35 14 19 1020.6 1020.5 -
31/12:30am 18.6 14.5 12.8 69 3.3 NNW 26 39 14 21 1020.7 - -
31/12:00am 18.8 14.4 13.0 69 3.3 NNW 28 39 15 21 1020.9 1020.8 -
 
Date/Time
EST
Tmp

°C
App
Tmp
°C
Dew
Point
°C
Rel
Hum
%
Delta-T

°C
Wind Press
QNH
hPa
Press
MSL
hPa
Rain
since
9 am
mm
Dir
 
Spd
km/h
Gust
km/h
Spd
kts
Gust
kts
30/11:30pm 18.8 13.9 12.5 67 3.5 NNW 30 37 16 20 1021.0 - -
30/11:00pm 18.8 14.7 12.8 68 3.4 NNW 26 35 14 19 1021.3 1021.2 -
30/10:30pm 18.8 15.7 13.4 71 3.1 NNW 22 33 12 18 1021.4 - -
30/10:00pm 18.8 14.8 13.0 69 3.3 NW 26 35 14 19 1021.2 1021.1 -
30/09:30pm 19.3 16.3 15.8 80 2.1 NNW 26 35 14 19 1021.1 - -
30/09:00pm 19.4 16.7 15.5 78 2.3 NNW 24 33 13 18 1021.2 1021.1 -
30/08:30pm 19.4 16.7 15.5 78 2.3 NNW 24 32 13 17 1021.1 - -
30/08:00pm 19.5 16.0 15.6 78 2.3 N 28 33 15 18 1020.8 1020.7 -
30/07:30pm 19.6 17.0 15.9 79 2.2 N 24 32 13 17 1020.8 - -
30/07:00pm 19.4 16.3 15.5 78 2.3 N 26 32 14 17 1020.6 1020.5 -
30/06:30pm 19.5 16.0 15.6 78 2.3 N 28 33 15 18 1020.1 - -
30/06:00pm 19.5 16.3 15.2 76 2.5 N 26 33 14 18 1019.8 1019.7 -
30/05:30pm 19.4 17.3 15.1 76 2.5 N 20 28 11 15 1019.6 - -
30/05:00pm 19.7 17.4 14.7 73 2.9 N 20 24 11 13 1019.4 1019.3 -
30/04:30pm 20.1 18.4 14.7 71 3.2 N 17 22 9 12 1019.5 - -
30/04:00pm 20.5 18.1 14.4 68 3.6 N 20 26 11 14 1019.3 1019.2 -
30/03:30pm 20.7 18.0 14.6 68 3.6 N 22 28 12 15 1019.1 - -
30/03:00pm 20.9 18.7 14.8 68 3.6 N 20 26 11 14 1019.0 1018.9 -
30/02:30pm 20.9 17.9 14.8 68 3.6 N 24 30 13 16 1019.1 - -
30/02:00pm 20.6 18.1 14.0 66 3.8 N 20 28 11 15 1019.3 1019.2 -
30/01:30pm 20.9 18.3 13.8 64 4.1 N 20 28 11 15 1019.6 - -
30/01:00pm 20.7 18.7 13.9 65 3.9 NNW 17 24 9 13 1020.1 1020.0 -
30/12:30pm 20.4 17.8 13.1 63 4.2 NNW 19 26 10 14 1020.6 - -
30/12:00pm 19.9 17.4 13.6 67 3.6 NNW 19 24 10 13 1021.2 1021.1 -
30/11:30am 19.3 16.8 13.5 69 3.3 NNW 19 24 10 13 1021.9 - -
30/11:00am 18.9 17.2 13.5 71 3.1 NW 15 22 8 12 1022.5 1022.4 -
30/10:30am 18.3 16.2 12.5 69 3.2 NW 15 22 8 12 1022.7 - -
30/10:00am 18.1 15.4 11.7 66 3.5 WNW 17 20 9 11 1022.9 1022.8 -
30/09:30am 17.9 15.9 12.6 71 3.0 WNW 15 22 8 12 1023.2 - -
30/09:00am 17.5 15.5 12.8 74 2.6 WNW 15 20 8 11 1023.4 1023.2 -
30/08:30am 17.2 15.1 13.5 79 2.1 WNW 17 22 9 12 1023.2 - -
30/08:00am 16.6 14.0 13.3 81 1.8 W 19 22 10 12 1023.1 1022.9 -
30/07:30am 17.0 14.5 13.5 80 2.0 W 19 20 10 11 1022.8 - -
30/07:00am 17.2 13.9 12.9 76 2.4 NW 22 28 12 15 1022.4 1022.3 -
30/06:30am 16.9 13.6 12.8 77 2.3 WNW 22 28 12 15 1022.2 - -
30/06:00am 16.6 13.8 13.1 80 2.0 NW 20 26 11 14 1021.9 1021.8 -
30/05:30am 16.1 13.2 13.0 82 1.7 WNW 20 24 11 13 1021.7 - -
30/05:00am 15.9 13.1 13.2 84 1.5 WNW 20 26 11 14 1021.5 1021.4 -
30/04:30am 15.7 12.9 13.2 85 1.4 W 20 26 11 14 1021.2 - -
30/04:00am 16.7 13.5 13.0 79 2.1 WNW 22 30 12 16 1021.1 1021.0 -
30/03:30am 17.0 13.9 13.5 80 2.0 NW 22 30 12 16 1021.0 - -
30/03:00am 17.0 13.7 12.9 77 2.3 WNW 22 32 12 17 1021.1 1021.0 -
30/02:30am 17.2 13.8 12.5 74 2.6 WNW 22 28 12 15 1021.1 - -
30/02:00am 17.2 14.1 12.1 72 2.8 WNW 20 28 11 15 1021.3 1021.2 -
30/01:30am 17.4 13.4 11.9 70 3.0 WNW 24 30 13 16 1021.5 - -
30/01:00am 17.5 14.2 11.5 68 3.3 WNW 20 26 11 14 1021.7 1021.6 -
30/12:30am 17.6 14.3 11.6 68 3.3 WNW 20 28 11 15 1021.9 - -
30/12:00am 18.2 14.4 11.3 64 3.8 NW 22 32 12 17 1021.8 1021.7 -
 
Date/Time
EST
Tmp

°C
App
Tmp
°C
Dew
Point
°C
Rel
Hum
%
Delta-T

°C
Wind Press
QNH
hPa
Press
MSL
hPa
Rain
since
9 am
mm
Dir
 
Spd
km/h
Gust
km/h
Spd
kts
Gust
kts
29/11:30pm 18.4 14.5 12.2 67 3.5 NW 24 35 13 19 1021.6 - -
29/11:00pm 18.7 14.8 13.3 71 3.1 NW 26 35 14 19 1021.6 1021.5 -
29/10:30pm 18.5 15.0 14.6 78 2.3 NW 26 35 14 19 1021.5 - -
29/10:00pm 19.1 16.5 15.0 77 2.4 NNW 22 30 12 16 1021.3 1021.2 -
29/09:30pm 19.1 16.0 14.6 75 2.6 NNW 24 32 13 17 1021.3 - -
29/09:00pm 19.2 15.8 14.7 75 2.6 N 26 32 14 17 1021.2 1021.1 -
29/08:30pm 19.2 16.5 14.7 75 2.6 NNW 22 30 12 16 1021.1 - -
29/08:00pm 19.1 15.8 14.1 73 2.9 N 24 30 13 16 1021.0 1020.9 -
29/07:30pm 19.2 15.8 13.8 71 3.1 N 24 28 13 15 1020.8 - -
29/07:00pm 19.0 16.2 13.2 69 3.3 N 20 24 11 13 1020.7 1020.6 -
29/06:30pm 19.1 16.5 13.3 69 3.3 N 19 22 10 12 1020.7 - -
29/06:00pm 19.0 17.0 12.7 67 3.5 N 15 20 8 11 1020.3 1020.2 -
29/05:30pm 19.0 16.4 12.0 64 3.9 N 17 22 9 12 1020.0 - -
29/05:00pm 19.3 17.2 12.3 64 3.9 N 15 20 8 11 1020.0 1019.9 -
29/04:30pm 19.7 17.5 10.9 57 4.8 N 13 17 7 9 1019.9 - -
29/04:00pm 20.5 18.8 11.2 55 5.1 NNE 11 15 6 8 1019.9 1019.8 -
29/03:30pm 21.0 19.7 11.3 54 5.4 N 9 15 5 8 1019.8 - -
29/03:00pm 20.6 18.6 12.6 60 4.5 N 15 17 8 9 1019.8 1019.7 -
29/02:30pm 20.9 19.5 13.4 62 4.3 NNW 13 17 7 9 1019.9 - -
29/02:00pm 21.3 20.1 12.7 58 4.9 NNW 11 15 6 8 1020.1 1020.0 -
29/01:30pm 20.8 19.7 13.0 61 4.5 NNW 11 19 6 10 1020.4 - -
29/01:00pm 20.3 18.1 12.0 59 4.6 NW 15 19 8 10 1020.7 1020.6 -
29/12:30pm 20.6 18.8 12.1 58 4.8 WNW 13 20 7 11 1021.1 - -
29/12:00pm 19.3 17.0 11.6 61 4.2 WNW 15 24 8 13 1021.5 1021.4 -
29/11:30am 19.1 16.8 11.9 63 4.0 WNW 15 20 8 11 1022.0 - -
29/11:00am 18.9 16.6 11.9 64 3.9 WNW 15 22 8 12 1022.5 1022.4 -
29/10:30am 18.5 16.3 12.0 66 3.6 W 15 20 8 11 1022.6 - -
29/10:00am 18.0 15.8 12.2 69 3.2 WNW 15 20 8 11 1022.8 1022.7 -
29/09:30am 17.8 15.1 11.8 68 3.3 WNW 17 24 9 13 1023.1 - -
29/09:00am 17.2 15.5 11.2 68 3.2 WNW 11 17 6 9 1023.2 1023.0 -
29/08:30am 16.5 13.9 10.6 68 3.2 WNW 15 20 8 11 1022.9 - -
29/08:00am 16.0 13.9 11.0 72 2.7 WNW 13 20 7 11 1022.8 1022.7 -
29/07:30am 14.6 11.2 10.6 77 2.1 W 19 24 10 13 1022.5 - -
29/07:00am 13.6 9.9 10.2 80 1.8 W 20 22 11 12 1022.4 1022.3 -
29/06:30am 14.5 11.1 11.1 80 1.8 W 20 24 11 13 1022.1 - -
29/06:00am 14.2 11.0 11.2 82 1.6 W 19 22 10 12 1021.7 1021.6 -
29/05:30am 15.0 12.0 11.8 81 1.7 W 19 24 10 13 1021.5 - -
29/05:00am 15.6 12.4 12.0 79 2.0 WNW 20 24 11 13 1021.2 1021.1 -
29/04:30am 15.8 12.7 12.2 79 2.0 WNW 20 28 11 15 1020.9 - -
29/04:00am 15.9 12.4 12.3 79 2.0 WNW 22 30 12 16 1020.8 1020.7 -
29/03:30am 16.0 12.6 12.4 79 2.0 WNW 22 28 12 15 1020.7 - -
29/03:00am 16.0 13.0 12.7 81 1.8 WNW 20 28 11 15 1020.7 1020.6 -
29/02:30am 17.0 13.8 13.1 78 2.2 WNW 22 30 12 16 1020.9 - -
29/02:00am 17.0 14.3 12.9 77 2.3 NW 19 24 10 13 1021.0 1020.9 -
29/01:30am 16.8 14.5 13.1 79 2.1 WNW 17 20 9 11 1021.2 - -
29/01:00am 17.1 14.6 13.4 79 2.1 WNW 19 22 10 12 1021.4 1021.3 -
29/12:30am 17.4 15.1 12.9 75 2.5 NW 17 22 9 12 1021.6 - -
29/12:00am 18.2 15.2 10.8 62 4.0 NNW 17 24 9 13 1021.9 1021.8 -
 
Date/Time
EST
Tmp

°C
App
Tmp
°C
Dew
Point
°C
Rel
Hum
%
Delta-T

°C
Wind Press
QNH
hPa
Press
MSL
hPa
Rain
since
9 am
mm
Dir
 
Spd
km/h
Gust
km/h
Spd
kts
Gust
kts
28/11:30pm 18.1 15.1 10.7 62 4.0 NNW 17 22 9 12 1022.2 - -
28/11:00pm 18.2 14.8 10.6 61 4.1 NNW 19 24 10 13 1022.3 1022.2 -
28/10:30pm 18.4 15.1 11.0 62 4.0 NNW 19 24 10 13 1022.4 - -
28/10:00pm 18.4 15.9 11.2 63 3.9 N 15 19 8 10 1022.5 1022.4 -
28/09:30pm 18.3 16.2 11.1 63 3.9 N 13 19 7 10 1022.5 - -
28/09:00pm 18.3 15.8 11.1 63 3.9 N 15 19 8 10 1022.4 1022.3 -
28/08:30pm 18.2 15.7 11.0 63 3.9 N 15 19 8 10 1022.2 - -
28/08:00pm 18.2 15.2 10.8 62 4.0 NNE 17 20 9 11 1021.9 1021.8 -
28/07:30pm 18.2 15.3 11.0 63 3.9 NNE 17 20 9 11 1021.9 - -
28/07:00pm 18.1 15.1 10.7 62 4.0 NNE 17 22 9 12 1021.6 1021.5 -
28/06:30pm 18.1 14.8 11.0 63 3.9 NNE 19 24 10 13 1021.3 - -
28/06:00pm 18.1 14.6 11.0 63 3.8 NNE 20 26 11 14 1021.1 1021.0 -
28/05:30pm 18.1 14.5 10.7 62 4.0 NNE 20 24 11 13 1021.0 - -
28/05:00pm 18.2 14.8 10.6 61 4.1 NNE 19 24 10 13 1020.9 1020.8 -
28/04:30pm 18.5 15.3 9.8 57 4.6 NNE 17 20 9 11 1020.9 - -
28/04:00pm 18.8 15.7 10.4 58 4.5 NNE 17 22 9 12 1020.7 1020.6 -
28/03:30pm 18.8 15.6 9.8 56 4.8 NE 17 20 9 11 1020.8 - -
28/03:00pm 19.6 17.0 9.5 52 5.4 NNE 13 17 7 9 1021.0 1020.9 -
28/02:30pm 19.9 17.9 10.0 53 5.3 NNE 11 15 6 8 1021.3 - -
28/02:00pm 20.3 18.3 10.1 52 5.5 N 11 13 6 7 1021.4 1021.3 -
28/01:30pm 19.5 17.5 10.0 54 5.1 N 11 13 6 7 1021.6 - -

Latest Capital City Observations: Canberra | Sydney | Melbourne | Brisbane | Adelaide | Perth | Hobart | Darwin

Other Formats:

Comma delimited format used in spreadsheet applications
http://www.bom.gov.au/fwo/IDQ60901/IDQ60901.94594.axf

JavaScript Object Notation format (JSON) in row-major order
http://www.bom.gov.au/fwo/IDQ60901/IDQ60901.94594.json